Time;durP1;ratioP1;P1;durP2;ratioP2;P2;SDS_P1;SDS_P2;PMS_P1;PMS_P2;Temp;Humidity;BMP_temperature;BMP_pressure;BME280_temperature;BME280_humidity;BME280_pressure;Samples;Min_cycle;Max_cycle;Signal;HPM_P1;HPM_P2
2022/04/28 00:02:14;;;;;;;1.83;1.05;;;;;;;18.15;31.33;99889.69;4994725;28;20049;-69
2022/04/28 00:04:40;;;;;;;3.95;1.10;;;;;;;18.23;31.08;99896.94;4994807;28;20120;-69
2022/04/28 00:07:05;;;;;;;2.25;1.10;;;;;;;18.30;31.14;99894.44;4993909;28;20042;-69
2022/04/28 00:09:31;;;;;;;1.52;1.00;;;;;;;18.36;31.13;99893.81;4994087;28;20053;-69
2022/04/28 00:11:56;;;;;;;1.02;0.60;;;;;;;18.42;30.95;99906.53;4993822;28;20515;-69
2022/04/28 00:14:22;;;;;;;1.70;0.98;;;;;;;18.47;31.03;99902.53;4993657;28;20065;-69
2022/04/28 00:16:47;;;;;;;2.42;0.80;;;;;;;18.53;30.73;99908.06;4991932;28;20366;-69
2022/04/28 00:19:13;;;;;;;2.10;0.73;;;;;;;18.57;30.79;99911.25;4993201;28;20030;-69
2022/04/28 00:21:39;;;;;;;1.38;0.90;;;;;;;18.60;30.72;99908.25;4993115;28;20058;-69
2022/04/28 00:24:05;;;;;;;1.98;1.02;;;;;;;18.65;30.63;99916.66;4993332;28;20096;-69
2022/04/28 00:26:30;;;;;;;1.55;0.93;;;;;;;18.69;30.53;99917.16;4992460;28;20041;-70
2022/04/28 00:28:56;;;;;;;1.48;1.10;;;;;;;18.74;30.29;99917.50;4992932;28;20038;-68
2022/04/28 00:31:21;;;;;;;4.10;1.10;;;;;;;18.75;30.54;99916.47;4993424;28;20033;-70
2022/04/28 00:33:48;;;;;;;1.77;0.95;;;;;;;18.78;30.41;99923.38;4993498;28;20128;-68
2022/04/28 00:36:17;;;;;;;1.42;0.90;;;;;;;18.82;30.33;99928.22;4992989;28;20113;-69
2022/04/28 00:38:43;;;;;;;2.45;0.85;;;;;;;18.83;30.37;99924.53;4993474;28;20764;-70
2022/04/28 00:41:08;;;;;;;1.05;0.90;;;;;;;18.84;30.25;99922.69;4991515;28;20041;-69
2022/04/28 00:43:48;;;;;;;1.58;1.00;;;;;;;18.86;30.25;99934.94;4979380;28;20034;-69
2022/04/28 00:46:13;;;;;;;1.88;1.13;;;;;;;18.87;30.40;99941.97;4992800;28;20034;-69
2022/04/28 00:51:24;;;;;;;2.38;1.38;;;;;;;18.94;30.07;99946.66;4993236;28;20033;-69
2022/04/28 00:53:51;;;;;;;4.07;1.17;;;;;;;18.96;30.00;99939.34;4991965;28;20125;-69
2022/04/28 00:56:17;;;;;;;1.65;1.30;;;;;;;18.95;30.15;99940.34;4992392;28;20038;-69
2022/04/28 00:58:43;;;;;;;2.03;1.23;;;;;;;19.00;30.11;99944.19;4992830;28;20048;-69
2022/04/28 01:01:09;;;;;;;1.73;1.13;;;;;;;19.03;30.05;99940.38;4993035;28;20069;-69
2022/04/28 01:03:35;;;;;;;1.65;1.25;;;;;;;19.05;29.98;99943.69;4993684;28;20124;-69
2022/04/28 01:06:04;;;;;;;5.15;1.45;;;;;;;19.09;30.16;99950.41;4992408;28;20121;-69
2022/04/28 01:08:29;;;;;;;1.92;1.20;;;;;;;19.11;30.05;99947.56;4992998;28;20038;-69
2022/04/28 01:10:56;;;;;;;2.30;1.23;;;;;;;19.12;30.13;99949.22;4993182;28;20049;-69
2022/04/28 01:13:22;;;;;;;2.00;1.00;;;;;;;19.15;30.01;99959.63;4993649;28;20386;-69
2022/04/28 01:15:50;;;;;;;1.77;1.20;;;;;;;19.15;30.03;99957.81;4992869;28;20117;-70
2022/04/28 01:18:16;;;;;;;1.77;0.90;;;;;;;19.18;29.91;99962.84;4993626;28;20034;-69
2022/04/28 01:20:42;;;;;;;1.30;0.90;;;;;;;19.19;29.72;99961.81;4993357;28;20053;-69
2022/04/28 01:23:09;;;;;;;1.77;1.13;;;;;;;19.23;29.78;99970.38;4993272;28;20042;-69
2022/04/28 01:25:35;;;;;;;1.70;1.00;;;;;;;19.25;29.74;99967.50;4992796;28;20482;-69
2022/04/28 01:28:00;;;;;;;1.50;0.95;;;;;;;19.26;29.40;99970.06;4992518;28;20046;-69
2022/04/28 01:30:26;;;;;;;1.13;0.82;;;;;;;19.27;29.49;99968.19;4993312;28;20038;-69
2022/04/28 01:32:53;;;;;;;2.25;0.73;;;;;;;19.29;29.38;99968.88;4993201;28;20049;-69
2022/04/28 01:35:18;;;;;;;1.52;0.95;;;;;;;19.32;29.38;99972.03;4993335;28;20053;-69
2022/04/28 01:37:44;;;;;;;2.03;0.90;;;;;;;19.34;29.19;99974.56;4993153;28;20412;-69
2022/04/28 01:40:13;;;;;;;2.28;0.90;;;;;;;19.36;29.29;99978.75;4993312;28;20034;-69
2022/04/28 01:42:40;;;;;;;1.38;0.90;;;;;;;19.38;29.32;99986.63;4993309;28;20035;-69
2022/04/28 01:45:07;;;;;;;1.38;0.95;;;;;;;19.38;29.28;99981.28;4992410;28;20038;-68
2022/04/28 01:47:33;;;;;;;2.13;0.95;;;;;;;19.41;29.37;99985.47;4992429;28;20476;-69
2022/04/28 01:49:59;;;;;;;1.65;1.20;;;;;;;19.42;29.07;99982.63;4992946;28;20401;-69
2022/04/28 01:55:08;;;;;;;1.98;1.00;;;;;;;19.44;29.01;99995.84;4984922;28;20409;-70
2022/04/28 01:57:34;;;;;;;1.85;1.10;;;;;;;19.46;29.14;100000.06;4988693;28;20125;-69
2022/04/28 02:00:00;;;;;;;1.60;0.90;;;;;;;19.47;29.07;100001.75;4992933;28;20042;-69
2022/04/28 02:02:26;;;;;;;2.22;1.10;;;;;;;19.49;29.21;99997.03;4992858;28;20034;-69
2022/04/28 02:04:58;;;;;;;4.78;1.67;;;;;;;19.52;29.20;99990.50;4993247;28;20085;-69
2022/04/28 02:07:24;;;;;;;2.20;1.13;;;;;;;19.54;28.90;100001.06;4990925;28;20560;-69
2022/04/28 02:09:49;;;;;;;2.80;1.20;;;;;;;19.55;29.07;100000.91;4992575;28;20030;-69
2022/04/28 02:12:15;;;;;;;1.48;1.10;;;;;;;19.58;29.24;99997.03;4995924;28;20121;-69
2022/04/28 02:14:41;;;;;;;1.42;1.02;;;;;;;19.60;28.97;100001.22;4996826;28;20038;-69
2022/04/28 02:17:07;;;;;;;2.45;0.88;;;;;;;19.62;29.05;100004.59;4995818;28;20042;-69
2022/04/28 02:19:32;;;;;;;2.10;1.27;;;;;;;19.64;28.50;100001.72;4996245;28;20061;-69
2022/04/28 02:21:58;;;;;;;2.78;1.23;;;;;;;19.66;28.96;99999.72;4996356;28;20057;-69
2022/04/28 02:24:24;;;;;;;1.50;1.00;;;;;;;19.69;28.69;100003.91;4996725;28;20547;-69
2022/04/28 02:26:49;;;;;;;2.45;1.30;;;;;;;19.72;28.87;100000.88;4995696;28;20110;-68
2022/04/28 02:29:15;;;;;;;1.58;0.88;;;;;;;19.76;28.95;100013.81;4996859;28;20432;-68
2022/04/28 02:31:41;;;;;;;3.47;0.98;;;;;;;19.78;29.08;100006.41;4994848;28;20405;-69
2022/04/28 02:34:07;;;;;;;2.28;0.93;;;;;;;19.79;28.63;100010.78;4996500;28;20121;-69
2022/04/28 02:36:33;;;;;;;1.33;1.02;;;;;;;19.79;28.65;100010.78;4995802;28;20405;-69
2022/04/28 02:38:58;;;;;;;1.90;0.90;;;;;;;19.82;28.71;100015.81;4996429;28;20076;-69
2022/04/28 02:41:24;;;;;;;1.85;0.90;;;;;;;19.82;28.44;100007.75;4995638;28;20023;-69
2022/04/28 02:43:50;;;;;;;1.40;0.80;;;;;;;19.86;28.56;100021.66;4992689;28;20039;-69
2022/04/28 02:46:16;;;;;;;2.10;0.80;;;;;;;19.88;28.39;100014.31;4976516;28;20041;-69
2022/04/28 02:48:41;;;;;;;2.45;0.80;;;;;;;19.89;28.19;100024.06;4976760;28;20043;-69
2022/04/28 02:51:07;;;;;;;2.30;1.02;;;;;;;19.92;28.19;100026.41;4980738;28;20501;-69
2022/04/28 02:53:33;;;;;;;1.10;0.75;;;;;;;19.96;28.31;100032.28;4996443;28;20053;-68
2022/04/28 02:55:59;;;;;;;3.10;0.80;;;;;;;19.97;27.91;100033.94;4991541;28;20389;-69
2022/04/28 02:58:24;;;;;;;2.15;0.98;;;;;;;19.99;27.55;100034.63;4996069;28;20055;-69
2022/04/28 03:00:50;;;;;;;1.50;0.85;;;;;;;20.04;27.74;100039.47;4995728;28;20054;-69
2022/04/28 03:03:15;;;;;;;1.67;1.10;;;;;;;20.07;27.52;100042.66;4995741;28;20035;-68
2022/04/28 03:11:09;;;;;;;1.17;0.80;;;;;;;20.21;27.32;100051.88;4995231;28;20034;-69
2022/04/28 03:13:36;;;;;;;1.08;0.68;;;;;;;20.30;27.08;100058.06;4995688;28;20046;-69
2022/04/28 03:16:01;;;;;;;1.85;0.70;;;;;;;20.37;27.14;100053.66;4991944;28;20161;-70
2022/04/28 03:18:27;;;;;;;2.38;1.05;;;;;;;20.43;26.91;100050.31;4975789;28;20122;-69
2022/04/28 03:20:54;;;;;;;3.08;1.00;;;;;;;20.54;26.71;100064.38;4975805;28;20054;-69
2022/04/28 03:23:20;;;;;;;1.98;0.90;;;;;;;20.62;26.19;100058.97;4993569;28;20042;-69
2022/04/28 03:25:46;;;;;;;2.25;0.88;;;;;;;20.68;26.05;100062.81;4995035;28;20404;-69
2022/04/28 03:28:11;;;;;;;1.65;1.10;;;;;;;20.79;25.86;100069.69;4995485;28;20034;-69
2022/04/28 03:30:37;;;;;;;1.88;0.90;;;;;;;20.89;25.58;100073.00;4995307;28;20029;-69
2022/04/28 03:33:02;;;;;;;1.85;1.20;;;;;;;20.95;25.29;100076.84;4995757;28;20537;-70
2022/04/28 03:35:28;;;;;;;1.85;1.20;;;;;;;21.05;25.17;100074.78;4995259;28;20113;-69
2022/04/28 03:37:54;;;;;;;2.45;1.30;;;;;;;21.12;25.09;100067.69;4994720;28;20739;-68
2022/04/28 03:40:19;;;;;;;2.63;0.98;;;;;;;21.18;24.96;100079.59;4994965;28;20544;-68
2022/04/28 03:42:46;;;;;;;2.28;0.93;;;;;;;21.19;24.78;100081.25;4994951;28;20137;-69
2022/04/28 03:45:11;;;;;;;1.95;1.00;;;;;;;21.22;24.84;100086.31;4984538;28;20475;-69
2022/04/28 03:47:37;;;;;;;1.92;0.80;;;;;;;21.25;24.63;100085.09;4989038;28;20038;-70
2022/04/28 03:50:04;;;;;;;2.42;0.90;;;;;;;21.26;24.56;100098.38;4995114;28;20041;-70
2022/04/28 03:52:30;;;;;;;1.23;0.70;;;;;;;21.29;24.68;100097.19;4995352;28;20123;-68
2022/04/28 03:54:55;;;;;;;4.10;0.90;;;;;;;21.32;24.43;100102.22;4994846;28;20496;-67
2022/04/28 03:57:21;;;;;;;2.17;1.02;;;;;;;21.32;24.34;100094.97;4993913;28;20401;-70
2022/04/28 03:59:46;;;;;;;1.63;1.17;;;;;;;21.35;24.07;100104.53;4994636;28;20041;-70
2022/04/28 04:02:12;;;;;;;1.05;0.80;;;;;;;21.33;24.48;100104.72;4994211;28;20038;-70
2022/04/28 04:04:38;;;;;;;2.83;0.90;;;;;;;21.36;24.32;100108.91;4994582;28;20034;-68
2022/04/28 04:07:04;;;;;;;1.42;1.08;;;;;;;21.32;24.23;100111.13;4990144;28;20486;-70
2022/04/28 04:09:29;;;;;;;2.80;1.20;;;;;;;21.31;23.98;100105.94;4994395;28;20379;-70
2022/04/28 04:11:55;;;;;;;2.67;1.02;;;;;;;21.29;23.90;100119.53;4994432;28;20046;-70
2022/04/28 04:14:20;;;;;;;3.42;1.20;;;;;;;21.26;23.87;100125.28;4994297;28;20100;-70
2022/04/28 04:16:46;;;;;;;1.67;1.05;;;;;;;21.23;24.30;100120.28;4993613;28;20408;-70
2022/04/28 04:19:11;;;;;;;1.80;0.90;;;;;;;21.21;24.14;100116.91;4994526;28;20117;-70
2022/04/28 04:21:37;;;;;;;2.00;1.00;;;;;;;21.21;24.17;100133.06;4994136;28;20464;-70
2022/04/28 04:24:02;;;;;;;2.05;1.00;;;;;;;21.20;24.23;100131.38;4994347;28;20049;-70
2022/04/28 04:26:28;;;;;;;2.08;1.02;;;;;;;21.21;24.16;100138.44;4993541;28;20041;-68
2022/04/28 04:28:53;;;;;;;2.92;1.10;;;;;;;21.25;24.29;100139.75;4993906;28;20068;-68
2022/04/28 04:34:03;;;;;;;1.52;0.90;;;;;;;21.38;24.18;100146.44;4993884;28;20050;-69
2022/04/28 04:36:29;;;;;;;5.43;1.67;;;;;;;21.44;23.86;100148.41;4994337;28;20038;-69
2022/04/28 04:38:54;;;;;;;2.10;1.13;;;;;;;21.56;23.59;100146.16;4994138;28;20045;-68
2022/04/28 04:41:20;;;;;;;1.90;1.05;;;;;;;21.77;23.31;100145.53;4993600;28;20034;-68
2022/04/28 04:43:45;;;;;;;1.23;0.90;;;;;;;22.01;23.08;100149.03;4993952;28;20029;-68
2022/04/28 04:46:11;;;;;;;2.60;0.95;;;;;;;22.23;23.11;100152.72;4992781;28;20135;-68
2022/04/28 04:48:36;;;;;;;1.58;0.90;;;;;;;22.48;22.49;100160.63;4993868;28;20038;-68
2022/04/28 04:51:02;;;;;;;2.42;1.30;;;;;;;22.70;21.99;100156.19;4993569;28;20030;-69
2022/04/28 04:53:28;;;;;;;2.03;1.00;;;;;;;22.89;21.73;100154.78;4993516;28;20676;-68
2022/04/28 04:55:54;;;;;;;2.30;1.10;;;;;;;23.06;21.80;100150.03;4980834;28;20125;-69
2022/04/28 04:58:19;;;;;;;1.20;0.80;;;;;;;23.22;21.95;100156.28;4992528;28;20117;-69
2022/04/28 05:00:45;;;;;;;3.13;1.02;;;;;;;23.37;21.79;100154.38;4993237;28;20038;-69
2022/04/28 05:03:11;;;;;;;1.60;1.00;;;;;;;23.49;21.19;100160.13;4993321;28;20445;-69
2022/04/28 05:05:37;;;;;;;3.38;0.82;;;;;;;23.59;21.14;100166.06;4989143;28;20037;-69
2022/04/28 05:08:02;;;;;;;1.63;0.73;;;;;;;23.70;21.62;100161.16;4974235;28;20030;-69
2022/04/28 05:10:28;;;;;;;3.13;1.10;;;;;;;23.81;21.38;100170.63;4974341;28;20054;-68
2022/04/28 05:12:53;;;;;;;3.15;0.90;;;;;;;23.86;21.48;100169.03;4993440;28;20049;-69
2022/04/28 05:15:19;;;;;;;2.25;1.00;;;;;;;23.96;21.37;100173.28;4992958;28;20046;-71
2022/04/28 05:17:44;;;;;;;2.45;1.10;;;;;;;24.00;21.23;100174.59;4990913;28;20497;-70
2022/04/28 05:20:10;;;;;;;3.50;1.10;;;;;;;24.04;21.32;100165.06;4993564;28;20060;-69
2022/04/28 05:22:35;;;;;;;1.70;0.98;;;;;;;24.09;21.55;100176.16;4992961;28;20054;-70
2022/04/28 05:25:01;;;;;;;2.22;1.00;;;;;;;24.13;21.67;100173.88;4993655;28;20061;-70
2022/04/28 05:27:26;;;;;;;1.60;0.80;;;;;;;24.16;21.63;100166.22;4992729;28;20409;-69
2022/04/28 05:29:52;;;;;;;2.15;1.00;;;;;;;24.25;21.48;100174.19;4993085;28;20112;-69
2022/04/28 05:32:18;;;;;;;2.83;1.73;;;;;;;24.28;20.95;100174.63;4992445;28;20049;-69
2022/04/28 05:34:43;;;;;;;1.98;0.82;;;;;;;24.27;21.43;100174.81;4993336;28;20041;-69
2022/04/28 05:37:12;;;;;;;2.17;1.25;;;;;;;24.30;20.99;100175.28;4992692;28;20039;-70
2022/04/28 05:39:39;;;;;;;3.85;0.82;;;;;;;24.33;21.22;100179.44;4992985;28;20404;-67
2022/04/28 05:42:05;;;;;;;2.47;1.23;;;;;;;24.32;20.80;100172.38;4992937;28;20401;-67
2022/04/28 05:47:15;;;;;;;2.38;0.93;;;;;;;24.32;21.44;100172.38;4985459;28;20129;-68
2022/04/28 05:49:40;;;;;;;2.97;0.95;;;;;;;24.31;21.15;100171.56;4996802;28;20544;-69
2022/04/28 05:52:07;;;;;;;2.72;0.70;;;;;;;24.32;21.53;100166.97;4996272;28;20052;-68
2022/04/28 05:54:33;;;;;;;2.78;1.20;;;;;;;24.28;21.44;100171.94;4996434;28;20125;-68
2022/04/28 05:56:58;;;;;;;4.60;0.95;;;;;;;24.19;21.77;100173.94;4977496;28;20031;-68
2022/04/28 05:59:24;;;;;;;3.63;0.80;;;;;;;24.10;21.46;100174.25;4977519;28;20093;-68
2022/04/28 06:01:49;;;;;;;3.50;1.65;;;;;;;23.93;21.63;100163.69;4985059;28;20030;-68
2022/04/28 06:04:15;;;;;;;1.58;1.00;;;;;;;23.81;21.44;100163.38;4997182;28;20031;-68
2022/04/28 06:06:40;;;;;;;3.58;1.00;;;;;;;23.73;21.83;100158.94;4995973;28;20093;-67
2022/04/28 06:09:06;;;;;;;6.68;1.00;;;;;;;23.69;22.00;100159.50;4995211;28;20037;-67
2022/04/28 06:11:31;;;;;;;3.45;1.10;;;;;;;23.64;21.96;100162.78;4996683;28;20053;-69
2022/04/28 06:13:57;;;;;;;1.75;1.20;;;;;;;23.62;21.79;100171.09;4996793;28;20066;-68
2022/04/28 06:16:22;;;;;;;1.98;1.10;;;;;;;23.60;21.95;100172.31;4994002;28;20089;-69
2022/04/28 06:18:48;;;;;;;1.55;1.10;;;;;;;23.56;22.06;100174.53;4996450;28;20078;-69
2022/04/28 06:21:13;;;;;;;3.47;1.40;;;;;;;23.52;22.07;100175.97;4996012;28;20046;-68
2022/04/28 06:23:39;;;;;;;1.17;0.98;;;;;;;23.51;21.45;100186.94;4996080;28;20465;-69
2022/04/28 06:26:05;;;;;;;2.33;0.88;;;;;;;23.48;21.34;100185.47;4996256;28;20137;-69
2022/04/28 06:28:30;;;;;;;4.25;0.77;;;;;;;23.44;21.76;100185.00;4996531;28;20133;-68
2022/04/28 06:30:56;;;;;;;1.20;0.85;;;;;;;23.39;21.48;100182.03;4995939;28;20042;-68
2022/04/28 06:33:22;;;;;;;3.30;1.13;;;;;;;23.31;20.87;100188.38;4996200;28;20405;-68
2022/04/28 06:35:47;;;;;;;1.40;1.00;;;;;;;23.26;21.20;100184.56;4996204;28;20375;-67
2022/04/28 06:38:13;;;;;;;2.78;0.75;;;;;;;23.22;21.25;100188.66;4996444;28;20031;-68
2022/04/28 06:40:38;;;;;;;3.40;1.10;;;;;;;23.19;21.29;100184.47;4995405;28;20084;-68
2022/04/28 06:43:05;;;;;;;3.83;1.20;;;;;;;23.19;21.50;100194.41;4995928;28;20041;-68
2022/04/28 06:45:30;;;;;;;2.60;1.05;;;;;;;23.15;21.01;100200.19;4987160;28;20030;-69
2022/04/28 06:47:56;;;;;;;3.13;1.02;;;;;;;23.11;20.86;100196.19;4995808;28;20512;-69
2022/04/28 06:50:22;;;;;;;1.52;0.75;;;;;;;23.06;20.82;100193.22;4995699;28;20022;-68
2022/04/28 06:52:47;;;;;;;7.88;0.90;;;;;;;23.06;21.13;100203.19;4995945;28;20042;-68
2022/04/28 06:55:13;;;;;;;2.33;1.33;;;;;;;23.02;21.01;100200.00;4995117;28;20112;-69
2022/04/28 06:57:39;;;;;;;7.20;1.02;;;;;;;22.98;20.68;100188.75;4995518;28;20038;-68
2022/04/28 07:00:07;;;;;;;1.95;1.13;;;;;;;22.98;20.68;100183.34;4995467;28;20041;-68
2022/04/28 07:02:33;;;;;;;3.10;0.80;;;;;;;22.97;21.40;100176.28;4994823;28;20153;-68
2022/04/28 07:04:58;;;;;;;1.70;0.82;;;;;;;22.99;21.14;100184.19;4994960;28;20046;-68
2022/04/28 07:07:24;;;;;;;3.90;1.20;;;;;;;22.96;20.81;100184.56;4994342;28;20033;-69
2022/04/28 07:09:50;;;;;;;2.08;0.95;;;;;;;22.94;20.69;100182.03;4995112;28;20498;-69
2022/04/28 07:12:16;;;;;;;3.10;1.20;;;;;;;22.92;20.75;100183.25;4995040;28;20520;-69
2022/04/28 07:14:43;;;;;;;6.15;1.45;;;;;;;22.90;20.18;100180.75;4995381;28;20038;-69
2022/04/28 07:17:09;;;;;;;2.10;1.15;;;;;;;22.86;20.18;100174.91;4994608;28;20117;-69
2022/04/28 07:19:35;;;;;;;5.28;1.10;;;;;;;22.84;20.05;100178.78;4995279;28;20125;-68
2022/04/28 07:22:03;;;;;;;2.90;1.60;;;;;;;22.81;19.91;100190.81;4994946;28;20588;-67
2022/04/28 07:24:29;;;;;;;2.15;0.77;;;;;;;22.81;20.80;100192.66;4994755;28;20038;-67
2022/04/28 07:26:55;;;;;;;1.27;1.00;;;;;;;22.81;20.73;100198.03;4994917;28;20096;-68
2022/04/28 07:29:21;;;;;;;2.55;0.80;;;;;;;22.79;20.70;100203.63;4995383;28;20038;-69
2022/04/28 07:31:46;;;;;;;5.32;1.63;;;;;;;22.76;20.43;100206.69;4994818;28;20125;-68
2022/04/28 07:34:12;;;;;;;3.60;1.02;;;;;;;22.75;20.40;100204.19;4995375;28;20150;-69
2022/04/28 07:36:38;;;;;;;4.88;1.00;;;;;;;22.75;21.00;100207.72;4994928;28;20038;-69
2022/04/28 07:39:03;;;;;;;2.53;1.05;;;;;;;22.75;21.39;100212.28;4995158;28;20042;-69
2022/04/28 07:41:29;;;;;;;2.05;0.73;;;;;;;22.73;21.58;100204.34;4994632;28;20034;-69
2022/04/28 07:43:55;;;;;;;1.42;0.90;;;;;;;22.75;22.11;100210.41;4995080;28;20048;-70
2022/04/28 07:46:20;;;;;;;0.85;0.57;;;;;;;22.77;22.39;100219.16;4994770;28;20451;-69
2022/04/28 07:48:46;;;;;;;0.93;0.63;;;;;;;22.77;23.47;100218.34;4995087;28;20507;-69
2022/04/28 07:51:11;;;;;;;4.15;0.82;;;;;;;22.81;24.08;100206.13;4994917;28;20111;-69
2022/04/28 07:53:38;;;;;;;1.42;0.60;;;;;;;22.88;24.75;100209.78;4990048;28;20070;-70
2022/04/28 07:56:10;;;;;;;1.35;0.88;;;;;;;22.93;22.81;100210.06;4977753;28;20045;-70
2022/04/28 07:58:37;;;;;;;0.85;0.80;;;;;;;22.92;21.89;100219.19;4994347;28;20035;-70
2022/04/28 08:01:05;;;;;;;3.63;0.90;;;;;;;22.93;22.46;100217.31;4994607;28;20026;-69
2022/04/28 08:03:31;;;;;;;2.45;1.00;;;;;;;22.93;22.28;100211.91;4994483;28;20038;-69
2022/04/28 08:05:57;;;;;;;2.65;1.20;;;;;;;22.92;21.38;100203.00;4991210;28;20034;-69
2022/04/28 08:08:23;;;;;;;2.25;1.20;;;;;;;22.92;21.74;100194.06;4993790;28;20026;-69
2022/04/28 08:10:49;;;;;;;1.67;0.88;;;;;;;22.92;21.72;100196.75;4994215;28;20501;-70
2022/04/28 08:13:15;;;;;;;1.23;0.90;;;;;;;22.89;21.79;100197.97;4994669;28;20484;-69
2022/04/28 08:15:41;;;;;;;2.33;1.05;;;;;;;22.90;21.73;100198.78;4994227;28;20038;-69
2022/04/28 08:18:06;;;;;;;1.35;0.75;;;;;;;22.92;21.87;100185.94;5012520;28;20397;-69
2022/04/28 08:20:32;;;;;;;2.67;0.90;;;;;;;22.91;22.49;100192.38;4994279;28;20065;-69
2022/04/28 08:22:57;;;;;;;1.73;0.95;;;;;;;22.91;22.96;100195.06;4994670;28;20124;-69
2022/04/28 08:25:23;;;;;;;4.22;0.93;;;;;;;22.93;22.97;100187.63;4994378;28;20117;-69
2022/04/28 08:27:49;;;;;;;2.72;0.80;;;;;;;22.93;22.86;100195.72;4992174;28;20034;-69
2022/04/28 08:30:14;;;;;;;1.35;0.82;;;;;;;22.95;22.63;100202.59;4994148;28;20034;-71
2022/04/28 08:32:40;;;;;;;2.60;1.10;;;;;;;22.95;22.21;100199.91;4992950;28;20038;-68
2022/04/28 08:35:06;;;;;;;4.20;1.35;;;;;;;22.95;20.81;100189.13;4992194;28;20035;-70
2022/04/28 08:37:32;;;;;;;3.28;1.20;;;;;;;22.93;21.59;100198.44;4993372;28;20037;-70
2022/04/28 08:39:57;;;;;;;1.90;0.70;;;;;;;22.96;21.80;100195.34;4993003;28;20030;-70
2022/04/28 08:42:26;;;;;;;4.65;1.05;;;;;;;22.97;21.06;100202.44;4992804;28;20038;-71
2022/04/28 08:44:58;;;;;;;1.65;0.80;;;;;;;22.97;20.37;100199.75;4974661;28;20442;-70
2022/04/28 08:47:24;;;;;;;8.10;1.10;;;;;;;22.94;20.99;100208.19;4991100;28;20104;-67
2022/04/28 08:49:50;;;;;;;5.00;1.35;;;;;;;22.92;20.95;100204.84;4991369;28;20096;-68
2022/04/28 08:52:17;;;;;;;7.00;1.42;;;;;;;22.89;21.87;100195.28;4989650;28;20488;-67
2022/04/28 08:54:44;;;;;;;3.70;1.02;;;;;;;22.91;22.72;100195.06;4988038;28;20070;-67
2022/04/28 08:57:11;;;;;;;4.90;1.50;;;;;;;22.93;22.40;100199.28;4989180;28;20145;-68
2022/04/28 08:59:37;;;;;;;2.25;1.20;;;;;;;22.92;23.22;100189.50;4982495;28;20042;-67
2022/04/28 09:02:02;;;;;;;1.30;1.02;;;;;;;22.94;23.55;100184.72;4991839;28;20046;-68
2022/04/28 09:04:29;;;;;;;1.42;1.00;;;;;;;22.97;23.23;100180.84;4993760;28;20038;-69
2022/04/28 09:06:56;;;;;;;2.47;1.17;;;;;;;22.97;21.89;100184.38;4987895;28;20121;-68
2022/04/28 09:09:22;;;;;;;2.40;1.13;;;;;;;22.95;21.49;100177.50;4991680;28;20453;-69
2022/04/28 09:11:48;;;;;;;2.20;1.00;;;;;;;22.91;20.88;100185.13;4983267;28;20030;-68
2022/04/28 09:14:20;;;;;;;2.05;1.00;;;;;;;22.88;20.33;100190.03;4975457;28;20045;-68
2022/04/28 09:17:06;;;;;;;1.88;1.33;;;;;;;22.81;20.54;100196.19;4982117;28;20501;-67
2022/04/28 09:19:34;;;;;;;3.95;1.60;;;;;;;22.78;20.45;100193.03;4989953;28;20568;-68
2022/04/28 09:22:08;;;;;;;4.30;1.27;;;;;;;22.78;20.86;100193.03;4989295;28;20617;-67
2022/04/28 09:24:34;;;;;;;7.07;1.17;;;;;;;22.78;21.76;100190.34;4991708;28;20038;-68
2022/04/28 09:27:02;;;;;;;2.92;1.40;;;;;;;22.81;21.41;100188.09;4992329;28;20026;-69
2022/04/28 09:29:36;;;;;;;3.10;1.55;;;;;;;22.86;21.15;100184.84;4991165;28;20040;-64
2022/04/28 09:32:06;;;;;;;2.15;1.13;;;;;;;22.88;21.24;100181.94;4990668;28;20042;-68
2022/04/28 09:34:32;;;;;;;2.87;1.40;;;;;;;22.88;21.09;100187.34;4992078;28;20180;-68
2022/04/28 09:36:58;;;;;;;3.10;1.80;;;;;;;22.88;20.33;100187.34;4989480;28;20046;-67
2022/04/28 09:42:33;;;;;;;3.00;1.60;;;;;;;22.85;19.94;100185.88;4984150;28;20536;-70
2022/04/28 09:45:00;;;;;;;1.95;1.50;;;;;;;22.81;19.91;100185.41;4977229;28;20042;-67
2022/04/28 09:47:27;;;;;;;2.25;1.35;;;;;;;22.79;20.63;100184.75;4988347;28;20038;-68
2022/04/28 09:49:55;;;;;;;5.13;1.65;;;;;;;22.74;20.86;100181.75;4991370;28;20478;-65
2022/04/28 09:52:24;;;;;;;7.07;1.63;;;;;;;22.44;20.99;100195.19;4988375;28;20494;-64
2022/04/28 09:54:54;;;;;;;1.70;1.20;;;;;;;21.78;21.37;100191.13;4989931;28;20038;-67
2022/04/28 09:57:21;;;;;;;2.53;1.80;;;;;;;21.01;21.64;100194.53;4988995;28;20066;-68
2022/04/28 09:59:48;;;;;;;3.80;1.83;;;;;;;20.39;22.16;100185.19;4990629;28;20505;-68
2022/04/28 10:02:17;;;;;;;6.30;1.55;;;;;;;19.96;22.44;100185.34;4992353;28;20038;-68
2022/04/28 10:04:43;;;;;;;3.13;1.30;;;;;;;19.77;22.55;100187.34;4991374;28;20041;-69
2022/04/28 10:07:10;;;;;;;5.15;1.55;;;;;;;19.73;22.10;100194.03;4988270;28;20030;-68
2022/04/28 10:09:39;;;;;;;4.10;1.63;;;;;;;19.49;22.18;100198.31;4992772;28;20038;-68
2022/04/28 10:12:06;;;;;;;4.55;1.65;;;;;;;19.14;22.41;100197.53;4992447;28;20046;-68
2022/04/28 10:14:34;;;;;;;2.97;1.55;;;;;;;18.92;22.54;100189.00;4992716;28;20116;-68
2022/04/28 10:17:01;;;;;;;6.90;1.35;;;;;;;18.79;22.60;100196.63;4991959;28;20444;-69
2022/04/28 10:19:34;;;;;;;5.35;1.30;;;;;;;18.50;22.63;100199.63;4992535;28;20093;-70
2022/04/28 10:22:10;;;;;;;6.80;1.80;;;;;;;18.33;22.60;100194.16;4992028;28;20117;-68
2022/04/28 10:33:02;;;;;;;5.20;2.10;;;;;;;18.30;22.97;100186.41;4995605;28;20045;-68
2022/04/28 10:35:50;;;;;;;4.10;1.80;;;;;;;18.42;22.84;100190.53;4995959;28;20382;-68
2022/04/28 10:38:16;;;;;;;5.90;2.58;;;;;;;18.44;22.91;100199.25;4995860;28;20109;-69
2022/04/28 10:41:24;;;;;;;7.93;3.17;;;;;;;18.44;23.02;100188.53;4995612;28;20545;-69
2022/04/28 10:43:51;;;;;;;11.38;4.03;;;;;;;18.34;23.45;100186.94;4995101;28;20126;-69
2022/04/28 10:46:22;;;;;;;7.05;3.33;;;;;;;18.35;23.42;100192.16;4995855;28;20405;-69
2022/04/28 10:48:52;;;;;;;14.02;4.18;;;;;;;18.39;23.61;100187.31;4995858;28;20488;-69
2022/04/28 10:51:21;;;;;;;17.60;3.63;;;;;;;18.30;24.63;100181.06;4995857;28;20038;-69
2022/04/28 10:54:14;;;;;;;15.32;3.90;;;;;;;18.19;24.90;100190.19;4995817;28;20364;-69
2022/04/28 10:56:39;;;;;;;11.13;2.83;;;;;;;18.10;25.25;100186.59;4976115;28;20502;-69
2022/04/28 10:59:32;;;;;;;19.23;4.45;;;;;;;18.02;25.96;100183.00;4976338;28;20034;-69
2022/04/28 11:02:17;;;;;;;9.57;3.20;;;;;;;17.89;26.15;100181.50;4989573;28;20030;-69
2022/04/28 11:05:01;;;;;;;6.53;2.78;;;;;;;17.74;26.54;100175.00;4995841;28;20076;-69
2022/04/28 11:07:29;;;;;;;10.70;2.90;;;;;;;17.65;26.43;100179.41;4976450;28;20074;-69
2022/04/28 11:10:01;;;;;;;11.27;4.00;;;;;;;17.59;26.77;100177.38;4992791;28;20496;-69
2022/04/28 11:12:46;;;;;;;;;;;;;;;17.41;26.37;100169.31;4995536;28;20034;-69
2022/04/28 11:15:14;;;;;;;8.68;2.75;;;;;;;17.36;26.29;100167.94;4994987;28;19977;-69
2022/04/28 11:17:44;;;;;;;8.70;2.83;;;;;;;17.39;26.29;100159.63;4979066;28;20035;-68
2022/04/28 11:20:20;;;;;;;7.53;3.35;;;;;;;17.50;27.14;100157.72;4975906;28;20441;-69
2022/04/28 11:22:54;;;;;;;5.43;2.20;;;;;;;17.67;26.35;100154.22;4975886;28;20129;-68
2022/04/28 11:25:22;;;;;;;4.60;2.13;;;;;;;17.59;25.91;100162.16;4975494;28;20118;-70
2022/04/28 11:27:50;;;;;;;8.57;2.55;;;;;;;17.46;27.49;100161.66;4990672;28;20026;-70
2022/04/28 11:30:21;;;;;;;5.97;2.22;;;;;;;17.60;26.56;100158.47;4994499;28;20088;-69
2022/04/28 11:32:52;;;;;;;4.30;1.95;;;;;;;17.79;26.04;100162.00;4995373;28;20042;-69
2022/04/28 11:35:19;;;;;;;2.38;1.63;;;;;;;17.77;25.59;100159.50;4995178;28;20049;-69
2022/04/28 11:37:45;;;;;;;9.00;2.42;;;;;;;17.73;25.37;100158.13;4995001;28;20049;-68
2022/04/28 11:40:16;;;;;;;4.85;1.88;;;;;;;17.74;25.10;100149.09;4994255;28;20034;-70
2022/04/28 11:42:42;;;;;;;4.68;1.67;;;;;;;17.58;25.15;100149.75;4994809;28;20084;-67
2022/04/28 11:45:08;;;;;;;4.30;1.60;;;;;;;17.45;25.16;100149.28;4982558;28;20504;-70
2022/04/28 11:47:42;;;;;;;2.58;1.63;;;;;;;17.36;25.15;100148.34;4992786;28;20396;-69
2022/04/28 11:50:16;;;;;;;3.58;1.55;;;;;;;17.39;25.03;100148.91;4993709;28;20129;-68
2022/04/28 11:52:42;;;;;;;3.90;1.60;;;;;;;17.47;24.89;100145.47;4981551;28;20110;-69
2022/04/28 11:55:09;;;;;;;4.45;2.00;;;;;;;17.60;24.67;100142.41;4975360;28;20133;-69